Dillon, MT

3:38 AM MDT on August 27, 2016 (GMT -0600)
Dillon | | Change Station

Elev 5240 ft 45.26 °N, 112.55 °W | Updated 45 minutes ago

Clear
Clear
45 °F
Feels Like 39 °F
N
12
Wind Variable Wind from SW

Today
High -- | Low -- °F
--% Chance of Precip.
Yesterday
High -- | Low -- °F
Precip. -- in
Pressure 29.90 in
Visibility 10.0 miles
Clouds Clear
Windchill 39 °F
Dew Point 33 °F
Humidity 63%
Rainfall 0.00 in
Snow Depth Not available.
6:46 AM 8:15 PM
Waning Crescent, 26% visible
METAR KDLN 270853Z AUTO 22010KT 10SM CLR 07/01 A3002 RMK AO2 SLP125 T00720006 58001
Pressure 29.90 in
Visibility 10.0 miles
Clouds Clear
Windchill 39 °F
Dew Point 33 °F
Humidity 63%
Rainfall 0.00 in
Snow Depth Not available.
6:46 AM 8:15 PM
Waning Crescent, 26% visible
METAR KDLN 270853Z AUTO 22010KT 10SM CLR 07/01 A3002 RMK AO2 SLP125 T00720006 58001

10-Day Weather Forecast

Almanac

Astronomy

Aug. 27, 2016 Rise Set
Actual Time
Civil Twilight
Nautical Twilight
Astronomical Twilight
Moon
Length of Visible Light
Length of Day
Tomorrow will be .
, % of the Moon is Illuminated

Today's Extremes

State Highs State Lows

Community

WunderPhotos

Upload Photos

1,935,313 photos uploaded!

WunderBlog® & News

Nearby

Air Quality

  Air Quality AQ Index Pollutant
Not available.

Snow Depth

Station Depth Elevation

Earthquake Activity

City Distance Mag. Time & Date
Minimum magnitude displayed is 2.5.

Coastal Water Temperatures

Place Temperature

Stations

Nearby Weather Stations

Station Location Temp. Windchill Dew Point Humidity Wind Precip. Elev Updated Type
                   

Watches & Warnings

There are currently no watches in effect.